sensor_id;sensor_type;location;lat;lon;timestamp;pressure;altitude;pressure_sealevel;temperature;humidity
39887;BME280;25559;44.738;20.980;2022-11-14T00:01:55;101753.34;;;10.59;88.58
39887;BME280;25559;44.738;20.980;2022-11-14T00:04:39;101761.97;;;10.58;88.60
39887;BME280;25559;44.738;20.980;2022-11-14T00:07:22;101759.34;;;10.52;88.11
39887;BME280;25559;44.738;20.980;2022-11-14T00:10:07;101760.19;;;10.47;88.45
39887;BME280;25559;44.738;20.980;2022-11-14T00:12:51;101756.75;;;10.45;88.87
39887;BME280;25559;44.738;20.980;2022-11-14T00:15:35;101750.69;;;10.43;89.31
39887;BME280;25559;44.738;20.980;2022-11-14T00:18:19;101753.28;;;10.40;89.77
39887;BME280;25559;44.738;20.980;2022-11-14T00:21:04;101752.41;;;10.43;90.04
39887;BME280;25559;44.738;20.980;2022-11-14T00:23:48;101762.78;;;10.44;90.00
39887;BME280;25559;44.738;20.980;2022-11-14T00:26:32;101753.28;;;10.45;90.73
39887;BME280;25559;44.738;20.980;2022-11-14T00:29:16;101750.66;;;10.37;90.75
39887;BME280;25559;44.738;20.980;2022-11-14T00:31:59;101754.94;;;10.34;91.58
39887;BME280;25559;44.738;20.980;2022-11-14T00:34:44;101752.28;;;10.27;91.45
39887;BME280;25559;44.738;20.980;2022-11-14T00:37:28;101748.84;;;10.24;91.47
39887;BME280;25559;44.738;20.980;2022-11-14T00:40:11;101741.03;;;10.14;91.61
39887;BME280;25559;44.738;20.980;2022-11-14T00:42:57;101737.47;;;10.03;92.69
39887;BME280;25559;44.738;20.980;2022-11-14T00:45:45;101753.88;;;9.96;92.55
39887;BME280;25559;44.738;20.980;2022-11-14T00:48:30;101750.34;;;9.89;93.15
39887;BME280;25559;44.738;20.980;2022-11-14T00:51:13;101743.44;;;9.88;93.70
39887;BME280;25559;44.738;20.980;2022-11-14T00:53:57;101756.38;;;9.88;93.86
39887;BME280;25559;44.738;20.980;2022-11-14T00:56:41;101743.41;;;9.87;93.87
39887;BME280;25559;44.738;20.980;2022-11-14T00:59:25;101754.69;;;9.90;93.08
39887;BME280;25559;44.738;20.980;2022-11-14T01:02:09;101746.91;;;9.90;92.85
39887;BME280;25559;44.738;20.980;2022-11-14T01:04:53;101744.31;;;9.90;93.11
39887;BME280;25559;44.738;20.980;2022-11-14T01:07:37;101739.16;;;9.90;92.58
39887;BME280;25559;44.738;20.980;2022-11-14T01:10:22;101743.44;;;9.91;93.44
39887;BME280;25559;44.738;20.980;2022-11-14T01:13:06;101733.09;;;9.90;93.22
39887;BME280;25559;44.738;20.980;2022-11-14T01:15:50;101731.38;;;9.87;94.04
39887;BME280;25559;44.738;20.980;2022-11-14T01:18:35;101727.06;;;9.89;94.24
39887;BME280;25559;44.738;20.980;2022-11-14T01:21:19;101721.88;;;9.89;94.72
39887;BME280;25559;44.738;20.980;2022-11-14T01:24:04;101720.13;;;9.90;95.73
39887;BME280;25559;44.738;20.980;2022-11-14T01:26:48;101718.47;;;9.93;96.19
39887;BME280;25559;44.738;20.980;2022-11-14T01:29:32;101716.75;;;9.97;96.14
39887;BME280;25559;44.738;20.980;2022-11-14T01:32:16;101721.94;;;10.03;95.79
39887;BME280;25559;44.738;20.980;2022-11-14T01:35:00;101713.34;;;10.06;95.40
39887;BME280;25559;44.738;20.980;2022-11-14T01:37:44;101712.50;;;10.10;94.81
39887;BME280;25559;44.738;20.980;2022-11-14T01:40:28;101708.19;;;10.10;94.48
39887;BME280;25559;44.738;20.980;2022-11-14T01:48:53;101706.44;;;10.11;93.91
39887;BME280;25559;44.738;20.980;2022-11-14T01:51:44;101696.06;;;10.06;93.40
39887;BME280;25559;44.738;20.980;2022-11-14T01:54:34;101704.72;;;10.07;93.90
39887;BME280;25559;44.738;20.980;2022-11-14T01:57:26;101705.56;;;10.06;94.30
39887;BME280;25559;44.738;20.980;2022-11-14T02:00:12;101703.84;;;10.05;93.60
39887;BME280;25559;44.738;20.980;2022-11-14T02:02:57;101699.53;;;10.04;93.44
39887;BME280;25559;44.738;20.980;2022-11-14T02:05:44;101696.06;;;10.05;93.17
39887;BME280;25559;44.738;20.980;2022-11-14T02:08:29;101685.69;;;10.03;93.83
39887;BME280;25559;44.738;20.980;2022-11-14T02:11:13;101689.16;;;10.02;95.36
39887;BME280;25559;44.738;20.980;2022-11-14T02:13:57;101690.00;;;10.00;96.06
39887;BME280;25559;44.738;20.980;2022-11-14T02:16:43;101689.03;;;9.82;97.42
39887;BME280;25559;44.738;20.980;2022-11-14T02:19:49;101692.53;;;9.86;97.36
39887;BME280;25559;44.738;20.980;2022-11-14T02:22:33;101689.94;;;9.84;96.99
39887;BME280;25559;44.738;20.980;2022-11-14T02:25:17;101685.59;;;9.82;97.72
39887;BME280;25559;44.738;20.980;2022-11-14T02:28:03;101680.38;;;9.77;98.86
39887;BME280;25559;44.738;20.980;2022-11-14T02:30:47;101678.63;;;9.73;99.33
39887;BME280;25559;44.738;20.980;2022-11-14T02:33:31;101676.91;;;9.72;99.42
39887;BME280;25559;44.738;20.980;2022-11-14T02:36:15;101683.81;;;9.74;99.96
39887;BME280;25559;44.738;20.980;2022-11-14T02:38:59;101679.53;;;9.75;99.39
39887;BME280;25559;44.738;20.980;2022-11-14T02:41:43;101676.03;;;9.73;100.00
39887;BME280;25559;44.738;20.980;2022-11-14T02:44:27;101676.88;;;9.67;100.00
39887;BME280;25559;44.738;20.980;2022-11-14T02:47:11;101681.16;;;9.62;100.00
39887;BME280;25559;44.738;20.980;2022-11-14T02:49:55;101672.50;;;9.55;100.00
39887;BME280;25559;44.738;20.980;2022-11-14T02:52:39;101670.75;;;9.54;100.00
39887;BME280;25559;44.738;20.980;2022-11-14T02:55:23;101675.03;;;9.48;100.00
39887;BME280;25559;44.738;20.980;2022-11-14T02:58:07;101673.28;;;9.45;100.00
39887;BME280;25559;44.738;20.980;2022-11-14T03:00:51;101670.66;;;9.40;100.00
39887;BME280;25559;44.738;20.980;2022-11-14T03:03:35;101671.38;;;9.22;100.00
39887;BME280;25559;44.738;20.980;2022-11-14T03:06:19;101667.75;;;8.99;100.00
39887;BME280;25559;44.738;20.980;2022-11-14T03:09:03;101668.47;;;8.85;100.00
39887;BME280;25559;44.738;20.980;2022-11-14T03:11:47;101664.13;;;8.83;100.00
39887;BME280;25559;44.738;20.980;2022-11-14T03:14:31;101662.34;;;8.79;100.00
39887;BME280;25559;44.738;20.980;2022-11-14T03:17:15;101653.59;;;8.63;100.00
39887;BME280;25559;44.738;20.980;2022-11-14T03:19:59;101655.25;;;8.58;100.00
39887;BME280;25559;44.738;20.980;2022-11-14T03:22:44;101656.91;;;8.51;100.00
39887;BME280;25559;44.738;20.980;2022-11-14T03:25:28;101659.44;;;8.45;100.00
39887;BME280;25559;44.738;20.980;2022-11-14T03:28:12;101662.06;;;8.49;100.00
39887;BME280;25559;44.738;20.980;2022-11-14T03:30:56;101656.03;;;8.49;100.00
39887;BME280;25559;44.738;20.980;2022-11-14T03:33:40;101655.06;;;8.42;100.00
39887;BME280;25559;44.738;20.980;2022-11-14T03:36:24;101656.03;;;8.47;100.00
39887;BME280;25559;44.738;20.980;2022-11-14T03:39:08;101649.16;;;8.51;100.00
39887;BME280;25559;44.738;20.980;2022-11-14T03:41:52;101647.44;;;8.53;100.00
39887;BME280;25559;44.738;20.980;2022-11-14T03:44:36;101647.50;;;8.59;100.00
39887;BME280;25559;44.738;20.980;2022-11-14T03:47:20;101649.28;;;8.63;100.00
39887;BME280;25559;44.738;20.980;2022-11-14T03:50:04;101646.72;;;8.65;100.00
39887;BME280;25559;44.738;20.980;2022-11-14T03:52:49;101654.53;;;8.71;100.00
39887;BME280;25559;44.738;20.980;2022-11-14T03:55:33;101652.88;;;8.76;100.00
39887;BME280;25559;44.738;20.980;2022-11-14T03:58:17;101655.53;;;8.84;100.00
39887;BME280;25559;44.738;20.980;2022-11-14T04:01:02;101647.78;;;8.84;100.00
39887;BME280;25559;44.738;20.980;2022-11-14T04:03:46;101649.50;;;8.85;100.00
39887;BME280;25559;44.738;20.980;2022-11-14T04:06:30;101642.59;;;8.82;100.00
39887;BME280;25559;44.738;20.980;2022-11-14T04:09:14;101645.16;;;8.81;100.00
39887;BME280;25559;44.738;20.980;2022-11-14T04:11:58;101645.19;;;8.84;100.00
39887;BME280;25559;44.738;20.980;2022-11-14T04:14:42;101643.50;;;8.87;100.00
39887;BME280;25559;44.738;20.980;2022-11-14T04:17:26;101646.09;;;8.89;100.00
39887;BME280;25559;44.738;20.980;2022-11-14T04:20:10;101653.03;;;8.92;100.00
39887;BME280;25559;44.738;20.980;2022-11-14T04:22:55;101647.00;;;8.97;100.00
39887;BME280;25559;44.738;20.980;2022-11-14T04:25:39;101647.94;;;9.04;100.00
39887;BME280;25559;44.738;20.980;2022-11-14T04:28:22;101633.25;;;8.98;100.00
39887;BME280;25559;44.738;20.980;2022-11-14T04:31:06;101641.97;;;9.10;100.00
39887;BME280;25559;44.738;20.980;2022-11-14T04:33:50;101645.44;;;9.13;100.00
39887;BME280;25559;44.738;20.980;2022-11-14T04:36:34;101646.31;;;9.17;100.00
39887;BME280;25559;44.738;20.980;2022-11-14T04:39:18;101645.47;;;9.18;100.00
39887;BME280;25559;44.738;20.980;2022-11-14T04:42:02;101642.91;;;9.19;100.00
39887;BME280;25559;44.738;20.980;2022-11-14T04:44:46;101639.47;;;9.19;100.00
39887;BME280;25559;44.738;20.980;2022-11-14T04:47:30;101644.66;;;9.23;100.00
39887;BME280;25559;44.738;20.980;2022-11-14T04:50:14;101641.22;;;9.24;100.00
39887;BME280;25559;44.738;20.980;2022-11-14T04:52:58;101646.38;;;9.26;100.00
39887;BME280;25559;44.738;20.980;2022-11-14T04:55:43;101639.47;;;9.22;100.00
39887;BME280;25559;44.738;20.980;2022-11-14T04:58:28;101635.06;;;9.09;100.00
39887;BME280;25559;44.738;20.980;2022-11-14T05:01:12;101640.97;;;8.94;100.00
39887;BME280;25559;44.738;20.980;2022-11-14T05:03:57;101641.78;;;8.91;100.00
39887;BME280;25559;44.738;20.980;2022-11-14T05:06:41;101641.69;;;8.79;100.00
39887;BME280;25559;44.738;20.980;2022-11-14T05:09:25;101638.88;;;8.54;100.00
39887;BME280;25559;44.738;20.980;2022-11-14T05:12:09;101649.03;;;8.42;100.00
39887;BME280;25559;44.738;20.980;2022-11-14T05:14:53;101642.03;;;8.31;100.00
39887;BME280;25559;44.738;20.980;2022-11-14T05:17:37;101646.31;;;8.28;100.00
39887;BME280;25559;44.738;20.980;2022-11-14T05:20:21;101642.84;;;8.27;100.00
39887;BME280;25559;44.738;20.980;2022-11-14T05:23:05;101648.94;;;8.32;100.00
39887;BME280;25559;44.738;20.980;2022-11-14T05:26:02;101649.03;;;8.42;100.00
39887;BME280;25559;44.738;20.980;2022-11-14T05:28:46;101649.13;;;8.46;100.00
39887;BME280;25559;44.738;20.980;2022-11-14T05:31:30;101650.72;;;8.38;100.00
39887;BME280;25559;44.738;20.980;2022-11-14T05:34:14;101645.31;;;8.19;100.00
39887;BME280;25559;44.738;20.980;2022-11-14T05:36:58;101652.91;;;8.06;100.00
39887;BME280;25559;44.738;20.980;2022-11-14T05:39:42;101658.97;;;8.06;100.00
39887;BME280;25559;44.738;20.980;2022-11-14T05:42:26;101652.22;;;8.21;100.00
39887;BME280;25559;44.738;20.980;2022-11-14T05:45:10;101654.41;;;8.59;100.00
39887;BME280;25559;44.738;20.980;2022-11-14T05:47:54;101656.56;;;9.03;100.00
39887;BME280;25559;44.738;20.980;2022-11-14T05:50:39;101650.91;;;9.58;100.00
39887;BME280;25559;44.738;20.980;2022-11-14T05:53:24;101657.22;;;10.06;100.00
39887;BME280;25559;44.738;20.980;2022-11-14T05:56:11;101660.09;;;10.94;100.00
39887;BME280;25559;44.738;20.980;2022-11-14T05:58:56;101658.28;;;11.77;97.42
39887;BME280;25559;44.738;20.980;2022-11-14T06:01:39;101664.94;;;12.55;94.12
39887;BME280;25559;44.738;20.980;2022-11-14T06:04:23;101658.22;;;13.44;89.87
39887;BME280;25559;44.738;20.980;2022-11-14T06:07:07;101661.81;;;14.13;82.77
39887;BME280;25559;44.738;20.980;2022-11-14T06:09:51;101670.22;;;14.97;77.47
39887;BME280;25559;44.738;20.980;2022-11-14T06:12:35;101677.91;;;15.58;72.89
39887;BME280;25559;44.738;20.980;2022-11-14T06:15:19;101667.72;;;15.91;70.91
39887;BME280;25559;44.738;20.980;2022-11-14T06:18:03;101665.69;;;15.58;70.45
39887;BME280;25559;44.738;20.980;2022-11-14T06:20:47;101666.13;;;15.84;69.30
39887;BME280;25559;44.738;20.980;2022-11-14T06:23:31;101676.91;;;16.10;67.68
39887;BME280;25559;44.738;20.980;2022-11-14T06:26:24;101668.19;;;16.11;66.38
39887;BME280;25559;44.738;20.980;2022-11-14T06:29:09;101668.66;;;16.69;66.95
39887;BME280;25559;44.738;20.980;2022-11-14T06:31:53;101659.03;;;17.76;63.52
39887;BME280;25559;44.738;20.980;2022-11-14T06:34:37;101658.50;;;18.83;59.70
39887;BME280;25559;44.738;20.980;2022-11-14T06:37:21;101658.09;;;19.73;54.04
39887;BME280;25559;44.738;20.980;2022-11-14T06:40:06;101654.06;;;20.57;51.21
39887;BME280;25559;44.738;20.980;2022-11-14T06:42:54;101660.81;;;21.50;48.25
39887;BME280;25559;44.738;20.980;2022-11-14T06:45:38;101660.63;;;22.33;43.41
39887;BME280;25559;44.738;20.980;2022-11-14T06:48:22;101663.44;;;22.84;42.49
39887;BME280;25559;44.738;20.980;2022-11-14T06:51:06;101655.22;;;23.43;39.92
39887;BME280;25559;44.738;20.980;2022-11-14T06:53:51;101658.97;;;23.90;38.60
39887;BME280;25559;44.738;20.980;2022-11-14T06:56:35;101662.03;;;23.98;37.39
39887;BME280;25559;44.738;20.980;2022-11-14T06:59:19;101660.44;;;24.11;36.93
39887;BME280;25559;44.738;20.980;2022-11-14T07:02:03;101660.63;;;24.08;37.13
39887;BME280;25559;44.738;20.980;2022-11-14T07:04:47;101665.06;;;24.24;36.92
39887;BME280;25559;44.738;20.980;2022-11-14T07:07:31;101672.25;;;23.20;38.28
39887;BME280;25559;44.738;20.980;2022-11-14T07:10:15;101674.59;;;22.72;39.83
39887;BME280;25559;44.738;20.980;2022-11-14T07:12:59;101668.34;;;22.92;39.69
39887;BME280;25559;44.738;20.980;2022-11-14T07:15:50;101659.72;;;22.88;39.39
39887;BME280;25559;44.738;20.980;2022-11-14T07:18:35;101665.19;;;22.66;40.14
39887;BME280;25559;44.738;20.980;2022-11-14T07:21:18;101663.72;;;22.04;41.27
39887;BME280;25559;44.738;20.980;2022-11-14T07:24:03;101656.66;;;22.23;41.31
39887;BME280;25559;44.738;20.980;2022-11-14T07:26:47;101656.81;;;22.39;41.60
39887;BME280;25559;44.738;20.980;2022-11-14T07:29:31;101650.75;;;22.91;40.16
39887;BME280;25559;44.738;20.980;2022-11-14T07:32:15;101654.00;;;23.33;39.15
39887;BME280;25559;44.738;20.980;2022-11-14T07:34:59;101649.22;;;24.38;36.72
39887;BME280;25559;44.738;20.980;2022-11-14T07:37:43;101657.72;;;24.45;36.57
39887;BME280;25559;44.738;20.980;2022-11-14T07:40:27;101655.88;;;25.38;34.45
39887;BME280;25559;44.738;20.980;2022-11-14T07:43:11;101656.16;;;26.34;33.06
39887;BME280;25559;44.738;20.980;2022-11-14T07:46:00;101648.69;;;25.83;33.04
39887;BME280;25559;44.738;20.980;2022-11-14T07:48:44;101657.59;;;25.39;34.19
39887;BME280;25559;44.738;20.980;2022-11-14T07:51:28;101654.88;;;25.25;34.17
39887;BME280;25559;44.738;20.980;2022-11-14T07:54:12;101645.00;;;26.15;32.70
39887;BME280;25559;44.738;20.980;2022-11-14T07:56:56;101651.38;;;26.94;31.66
39887;BME280;25559;44.738;20.980;2022-11-14T07:59:40;101648.34;;;26.31;32.19
39887;BME280;25559;44.738;20.980;2022-11-14T08:02:24;101648.44;;;26.57;32.05
39887;BME280;25559;44.738;20.980;2022-11-14T08:05:08;101646.19;;;27.31;30.74
39887;BME280;25559;44.738;20.980;2022-11-14T08:07:52;101636.47;;;26.91;30.46
39887;BME280;25559;44.738;20.980;2022-11-14T08:10:36;101636.72;;;27.53;29.59
39887;BME280;25559;44.738;20.980;2022-11-14T08:13:20;101641.19;;;26.73;32.60
39887;BME280;25559;44.738;20.980;2022-11-14T08:16:06;101641.00;;;27.42;31.83
39887;BME280;25559;44.738;20.980;2022-11-14T08:18:50;101631.25;;;28.30;29.69
39887;BME280;25559;44.738;20.980;2022-11-14T08:21:35;101638.00;;;27.73;29.23
39887;BME280;25559;44.738;20.980;2022-11-14T08:24:19;101636.28;;;26.40;31.29
39887;BME280;25559;44.738;20.980;2022-11-14T08:27:03;101643.53;;;26.51;31.35
39887;BME280;25559;44.738;20.980;2022-11-14T08:29:47;101639.97;;;25.38;33.49
39887;BME280;25559;44.738;20.980;2022-11-14T08:32:31;101638.47;;;25.77;32.80
39887;BME280;25559;44.738;20.980;2022-11-14T08:35:15;101634.63;;;25.24;33.41
39887;BME280;25559;44.738;20.980;2022-11-14T08:38:00;101627.63;;;25.66;33.61
39887;BME280;25559;44.738;20.980;2022-11-14T08:40:45;101641.59;;;25.69;33.46
39887;BME280;25559;44.738;20.980;2022-11-14T08:43:30;101647.84;;;25.68;33.21
39887;BME280;25559;44.738;20.980;2022-11-14T08:46:14;101635.16;;;25.59;32.91
39887;BME280;25559;44.738;20.980;2022-11-14T08:48:58;101641.56;;;26.82;31.66
39887;BME280;25559;44.738;20.980;2022-11-14T08:51:42;101633.09;;;27.15;31.61
39887;BME280;25559;44.738;20.980;2022-11-14T08:54:26;101636.44;;;27.44;30.67
39887;BME280;25559;44.738;20.980;2022-11-14T08:57:11;101640.69;;;26.81;30.75
39887;BME280;25559;44.738;20.980;2022-11-14T08:59:57;101626.13;;;26.87;31.24
39887;BME280;25559;44.738;20.980;2022-11-14T09:02:41;101623.34;;;26.75;31.13
39887;BME280;25559;44.738;20.980;2022-11-14T09:05:25;101622.88;;;27.73;30.49
39887;BME280;25559;44.738;20.980;2022-11-14T09:08:09;101628.34;;;28.33;29.12
39887;BME280;25559;44.738;20.980;2022-11-14T09:10:53;101618.34;;;27.37;30.27
39887;BME280;25559;44.738;20.980;2022-11-14T09:13:38;101621.81;;;27.76;29.85
39887;BME280;25559;44.738;20.980;2022-11-14T09:16:22;101619.91;;;27.65;30.11
39887;BME280;25559;44.738;20.980;2022-11-14T09:19:06;101624.78;;;27.07;30.98
39887;BME280;25559;44.738;20.980;2022-11-14T09:21:50;101607.78;;;27.61;30.58
39887;BME280;25559;44.738;20.980;2022-11-14T09:24:34;101603.94;;;27.65;30.27
39887;BME280;25559;44.738;20.980;2022-11-14T09:27:18;101606.03;;;27.73;30.16
39887;BME280;25559;44.738;20.980;2022-11-14T09:30:03;101599.84;;;27.85;29.88
39887;BME280;25559;44.738;20.980;2022-11-14T09:32:48;101597.50;;;27.68;30.32
39887;BME280;25559;44.738;20.980;2022-11-14T09:35:32;101595.31;;;27.23;30.15
39887;BME280;25559;44.738;20.980;2022-11-14T09:38:17;101585.63;;;27.09;30.72
39887;BME280;25559;44.738;20.980;2022-11-14T09:46:59;101589.69;;;25.93;32.85
39887;BME280;25559;44.738;20.980;2022-11-14T09:49:45;101585.50;;;25.02;33.73
39887;BME280;25559;44.738;20.980;2022-11-14T09:52:40;101581.72;;;24.92;34.53
39887;BME280;25559;44.738;20.980;2022-11-14T09:55:30;101574.72;;;25.19;34.80
39887;BME280;25559;44.738;20.980;2022-11-14T09:58:18;101571.47;;;25.45;34.23
39887;BME280;25559;44.738;20.980;2022-11-14T10:04:19;101570.94;;;24.48;35.89
39887;BME280;25559;44.738;20.980;2022-11-14T10:13:29;101566.91;;;22.95;40.03
39887;BME280;25559;44.738;20.980;2022-11-14T10:34:34;101541.81;;;21.76;42.72
39887;BME280;25559;44.738;20.980;2022-11-14T10:37:30;101536.47;;;21.59;43.01
39887;BME280;25559;44.738;20.980;2022-11-14T10:46:19;101530.06;;;21.25;45.68
39887;BME280;25559;44.738;20.980;2022-11-14T10:49:17;101512.91;;;20.96;45.85
39887;BME280;25559;44.738;20.980;2022-11-14T10:52:06;101514.34;;;20.82;47.99
39887;BME280;25559;44.738;20.980;2022-11-14T10:54:58;101516.66;;;20.04;49.71
39887;BME280;25559;44.738;20.980;2022-11-14T10:57:46;101506.28;;;20.44;48.78
39887;BME280;25559;44.738;20.980;2022-11-14T11:00:30;101510.13;;;20.57;48.13
39887;BME280;25559;44.738;20.980;2022-11-14T11:03:15;101511.16;;;20.53;48.38
39887;BME280;25559;44.738;20.980;2022-11-14T11:05:59;101505.22;;;20.48;49.42
39887;BME280;25559;44.738;20.980;2022-11-14T11:08:43;101504.63;;;20.41;48.98
39887;BME280;25559;44.738;20.980;2022-11-14T11:11:57;101499.28;;;20.43;49.10
39887;BME280;25559;44.738;20.980;2022-11-14T11:14:47;101501.72;;;20.48;49.95
39887;BME280;25559;44.738;20.980;2022-11-14T11:17:31;101489.41;;;20.70;49.10
39887;BME280;25559;44.738;20.980;2022-11-14T11:20:36;101490.84;;;20.77;48.64
39887;BME280;25559;44.738;20.980;2022-11-14T11:23:25;101483.53;;;20.64;48.21
39887;BME280;25559;44.738;20.980;2022-11-14T11:26:18;101479.28;;;20.59;48.25
39887;BME280;25559;44.738;20.980;2022-11-14T11:31:54;101473.63;;;20.05;50.13
39887;BME280;25559;44.738;20.980;2022-11-14T11:34:38;101464.03;;;19.82;52.33
39887;BME280;25559;44.738;20.980;2022-11-14T11:37:35;101465.25;;;19.72;51.51
39887;BME280;25559;44.738;20.980;2022-11-14T11:40:25;101460.44;;;19.61;52.27
39887;BME280;25559;44.738;20.980;2022-11-14T11:45:24;101458.44;;;19.22;54.41
39887;BME280;25559;44.738;20.980;2022-11-14T11:48:15;101445.09;;;19.03;55.23
39887;BME280;25559;44.738;20.980;2022-11-14T11:51:01;101449.84;;;18.93;56.29
39887;BME280;25559;44.738;20.980;2022-11-14T11:53:56;101451.09;;;18.81;56.93
39887;BME280;25559;44.738;20.980;2022-11-14T11:56:43;101443.81;;;18.90;56.35
39887;BME280;25559;44.738;20.980;2022-11-14T11:59:34;101431.72;;;18.84;56.85
39887;BME280;25559;44.738;20.980;2022-11-14T12:02:24;101442.00;;;18.92;54.75
39887;BME280;25559;44.738;20.980;2022-11-14T12:05:14;101428.88;;;18.92;55.13
39887;BME280;25559;44.738;20.980;2022-11-14T12:08:01;101428.31;;;18.82;55.57
39887;BME280;25559;44.738;20.980;2022-11-14T12:10:48;101421.22;;;18.84;55.29
39887;BME280;25559;44.738;20.980;2022-11-14T12:13:52;101423.50;;;18.70;55.41
39887;BME280;25559;44.738;20.980;2022-11-14T12:20:38;101405.25;;;18.67;56.11
39887;BME280;25559;44.738;20.980;2022-11-14T12:26:43;101407.53;;;18.51;56.98
39887;BME280;25559;44.738;20.980;2022-11-14T12:29:47;101405.19;;;18.43;56.61
39887;BME280;25559;44.738;20.980;2022-11-14T12:32:40;101400.84;;;18.42;56.66
39887;BME280;25559;44.738;20.980;2022-11-14T12:35:30;101402.28;;;18.25;57.93
39887;BME280;25559;44.738;20.980;2022-11-14T12:38:17;101406.47;;;18.31;59.14
39887;BME280;25559;44.738;20.980;2022-11-14T12:41:04;101391.53;;;18.33;60.15
39887;BME280;25559;44.738;20.980;2022-11-14T12:44:17;101390.19;;;18.46;58.71
39887;BME280;25559;44.738;20.980;2022-11-14T12:47:15;101380.59;;;18.45;59.16
39887;BME280;25559;44.738;20.980;2022-11-14T12:53:41;101384.63;;;18.56;59.20
39887;BME280;25559;44.738;20.980;2022-11-14T12:56:47;101381.19;;;18.54;59.33
39887;BME280;25559;44.738;20.980;2022-11-14T12:59:48;101380.28;;;18.55;59.98
39887;BME280;25559;44.738;20.980;2022-11-14T13:02:47;101377.59;;;18.56;59.70
39887;BME280;25559;44.738;20.980;2022-11-14T13:05:44;101384.84;;;18.50;59.79
39887;BME280;25559;44.738;20.980;2022-11-14T13:11:50;101383.00;;;18.52;58.66
39887;BME280;25559;44.738;20.980;2022-11-14T13:14:55;101377.81;;;18.50;58.26
39887;BME280;25559;44.738;20.980;2022-11-14T13:18:08;101383.56;;;18.36;58.91
39887;BME280;25559;44.738;20.980;2022-11-14T13:21:18;101384.41;;;18.37;59.58
39887;BME280;25559;44.738;20.980;2022-11-14T13:24:23;101381.81;;;18.35;59.28
39887;BME280;25559;44.738;20.980;2022-11-14T13:27:33;101373.00;;;18.38;60.00
39887;BME280;25559;44.738;20.980;2022-11-14T13:33:45;101376.59;;;18.35;59.77
39887;BME280;25559;44.738;20.980;2022-11-14T13:36:37;101375.69;;;18.36;59.40
39887;BME280;25559;44.738;20.980;2022-11-14T13:39:34;101369.97;;;18.23;59.00
39887;BME280;25559;44.738;20.980;2022-11-14T13:42:40;101372.81;;;18.17;59.64
39887;BME280;25559;44.738;20.980;2022-11-14T13:45:45;101358.22;;;18.10;59.93
39887;BME280;25559;44.738;20.980;2022-11-14T13:49:00;101359.66;;;17.93;60.24
39887;BME280;25559;44.738;20.980;2022-11-14T13:51:51;101353.69;;;17.87;60.37
39887;BME280;25559;44.738;20.980;2022-11-14T13:54:44;101353.69;;;17.87;60.70
39887;BME280;25559;44.738;20.980;2022-11-14T13:57:39;101353.63;;;17.90;60.51
39887;BME280;25559;44.738;20.980;2022-11-14T14:00:47;101345.94;;;17.84;62.09
39887;BME280;25559;44.738;20.980;2022-11-14T14:03:47;101345.28;;;17.77;61.76
39887;BME280;25559;44.738;20.980;2022-11-14T14:06:47;101347.16;;;17.73;62.16
39887;BME280;25559;44.738;20.980;2022-11-14T14:09:42;101347.50;;;17.63;61.93
39887;BME280;25559;44.738;20.980;2022-11-14T14:12:42;101339.91;;;17.53;62.79
39887;BME280;25559;44.738;20.980;2022-11-14T14:15:35;101334.63;;;17.55;64.63
39887;BME280;25559;44.738;20.980;2022-11-14T14:18:27;101334.53;;;17.58;64.16
39887;BME280;25559;44.738;20.980;2022-11-14T14:21:28;101334.69;;;17.53;62.29
39887;BME280;25559;44.738;20.980;2022-11-14T14:24:30;101332.41;;;17.43;63.16
39887;BME280;25559;44.738;20.980;2022-11-14T14:27:25;101331.84;;;17.33;63.67
39887;BME280;25559;44.738;20.980;2022-11-14T14:30:15;101335.47;;;17.29;64.65
39887;BME280;25559;44.738;20.980;2022-11-14T14:33:04;101335.78;;;17.18;63.91
39887;BME280;25559;44.738;20.980;2022-11-14T14:35:53;101332.72;;;17.05;64.47
39887;BME280;25559;44.738;20.980;2022-11-14T14:38:39;101339.19;;;16.92;65.16
39887;BME280;25559;44.738;20.980;2022-11-14T14:41:29;101336.88;;;16.81;65.52
39887;BME280;25559;44.738;20.980;2022-11-14T14:44:21;101333.56;;;16.74;65.42
39887;BME280;25559;44.738;20.980;2022-11-14T14:47:14;101336.53;;;16.62;66.05
39887;BME280;25559;44.738;20.980;2022-11-14T14:50:01;101336.00;;;16.49;66.26
39887;BME280;25559;44.738;20.980;2022-11-14T14:52:54;101338.22;;;16.31;66.93
39887;BME280;25559;44.738;20.980;2022-11-14T14:55:40;101335.78;;;16.25;67.13
39887;BME280;25559;44.738;20.980;2022-11-14T14:58:28;101326.44;;;16.15;67.47
39887;BME280;25559;44.738;20.980;2022-11-14T15:01:16;101331.09;;;16.04;67.64
39887;BME280;25559;44.738;20.980;2022-11-14T15:04:04;101335.84;;;15.88;68.01
39887;BME280;25559;44.738;20.980;2022-11-14T15:06:51;101331.69;;;15.79;68.43
39887;BME280;25559;44.738;20.980;2022-11-14T15:09:50;101330.97;;;15.72;68.72
39887;BME280;25559;44.738;20.980;2022-11-14T15:12:36;101327.63;;;15.67;69.23
39887;BME280;25559;44.738;20.980;2022-11-14T15:15:22;101327.84;;;15.58;69.51
39887;BME280;25559;44.738;20.980;2022-11-14T15:18:18;101322.81;;;15.50;69.74
39887;BME280;25559;44.738;20.980;2022-11-14T15:21:15;101311.59;;;15.45;70.46
39887;BME280;25559;44.738;20.980;2022-11-14T15:24:13;101320.38;;;15.41;70.07
39887;BME280;25559;44.738;20.980;2022-11-14T15:27:02;101319.75;;;15.31;70.77
39887;BME280;25559;44.738;20.980;2022-11-14T15:29:50;101320.00;;;15.20;71.12
39887;BME280;25559;44.738;20.980;2022-11-14T15:32:36;101313.25;;;15.10;71.33